createdAt,value
2017-01-06T00:00:44.789Z,-3.59
2017-01-06T00:01:45.030Z,-3.64
2017-01-06T00:02:44.798Z,-3.65
2017-01-06T00:03:45.048Z,-3.59
2017-01-06T00:04:45.360Z,-3.65
2017-01-06T00:05:44.972Z,-3.65
2017-01-06T00:06:44.968Z,-3.7
2017-01-06T00:07:45.007Z,-3.72
2017-01-06T00:08:44.899Z,-3.77
2017-01-06T00:09:45.216Z,-3.68
2017-01-06T00:10:44.869Z,-3.76
2017-01-06T00:11:45.065Z,-3.81
2017-01-06T00:12:44.984Z,-3.81
2017-01-06T00:13:44.834Z,-3.72
2017-01-06T00:14:44.805Z,-3.74
2017-01-06T00:15:44.954Z,-3.81
2017-01-06T00:16:44.953Z,-3.72
2017-01-06T00:17:44.859Z,-3.74
2017-01-06T00:18:44.837Z,-3.81
2017-01-06T00:19:44.935Z,-3.84
2017-01-06T00:20:44.830Z,-3.69
2017-01-06T00:21:45.029Z,-3.72
2017-01-06T00:22:44.918Z,-3.74
2017-01-06T00:23:44.938Z,-3.7
2017-01-06T00:24:45.069Z,-3.68
2017-01-06T00:25:44.812Z,-3.65
2017-01-06T00:26:44.859Z,-3.69
2017-01-06T00:27:45.689Z,-3.72
2017-01-06T00:28:44.804Z,-3.61
2017-01-06T00:29:44.807Z,-3.57
2017-01-06T00:30:45.753Z,-3.58
2017-01-06T00:31:44.979Z,-3.62
2017-01-06T00:32:44.834Z,-3.54
2017-01-06T00:33:45.077Z,-3.55
2017-01-06T00:34:44.877Z,-3.54
2017-01-06T00:35:44.968Z,-3.62
2017-01-06T00:36:44.904Z,-3.57
2017-01-06T00:37:44.960Z,-3.55
2017-01-06T00:38:44.912Z,-3.55
2017-01-06T00:39:45.007Z,-3.54
2017-01-06T00:40:44.835Z,-3.55
2017-01-06T00:41:44.942Z,-3.55
2017-01-06T00:42:44.817Z,-3.57
2017-01-06T00:43:44.847Z,-3.58
2017-01-06T00:44:44.897Z,-3.55
2017-01-06T00:45:44.937Z,-3.61
2017-01-06T00:46:44.880Z,-3.52
2017-01-06T00:47:45.097Z,-3.58
2017-01-06T00:48:44.905Z,-3.57
2017-01-06T00:49:45.033Z,-3.57
2017-01-06T00:50:44.904Z,-3.55
2017-01-06T00:51:44.933Z,-3.64
2017-01-06T00:52:44.989Z,-3.57
2017-01-06T00:53:44.848Z,-3.61
2017-01-06T00:54:44.853Z,-3.61
2017-01-06T00:55:45.025Z,-3.64
2017-01-06T00:56:44.887Z,-3.65
2017-01-06T00:57:44.905Z,-3.72
2017-01-06T00:58:44.907Z,-3.77
2017-01-06T00:59:45.571Z,-3.61
2017-01-06T01:00:44.838Z,-3.7
2017-01-06T01:01:44.993Z,-3.69
2017-01-06T01:02:44.902Z,-3.68
2017-01-06T01:03:44.963Z,-3.72
2017-01-06T01:04:44.878Z,-3.8
2017-01-06T01:05:44.865Z,-3.69
2017-01-06T01:06:44.917Z,-3.7
2017-01-06T01:07:45.002Z,-3.76
2017-01-06T01:08:44.921Z,-3.81
2017-01-06T01:09:44.979Z,-3.84
2017-01-06T01:10:44.994Z,-3.83
2017-01-06T01:11:44.923Z,-3.84
2017-01-06T01:12:45.498Z,-3.79
2017-01-06T01:13:44.995Z,-3.84
2017-01-06T01:14:44.849Z,-3.84
2017-01-06T01:15:44.846Z,-3.81
2017-01-06T01:16:44.980Z,-3.88
2017-01-06T01:17:44.971Z,-3.84
2017-01-06T01:18:44.870Z,-3.81
2017-01-06T01:19:45.134Z,-3.86
2017-01-06T01:20:45.611Z,-3.83
2017-01-06T01:21:44.955Z,-3.86
2017-01-06T01:22:44.861Z,-3.88
2017-01-06T01:23:44.956Z,-3.81
2017-01-06T01:24:44.877Z,-3.83
2017-01-06T01:25:44.992Z,-3.84
2017-01-06T01:26:44.933Z,-3.8
2017-01-06T01:27:46.944Z,-3.91
2017-01-06T01:28:44.931Z,-3.86
2017-01-06T01:29:45.067Z,-3.77
2017-01-06T01:30:44.913Z,-3.83
2017-01-06T01:31:45.019Z,-3.89
2017-01-06T01:32:44.855Z,-3.83
2017-01-06T01:33:45.027Z,-3.86
2017-01-06T01:34:44.912Z,-3.86
2017-01-06T01:35:44.878Z,-3.84
2017-01-06T01:36:44.912Z,-3.89
2017-01-06T01:37:44.862Z,-3.83
2017-01-06T01:38:44.902Z,-3.84
2017-01-06T01:39:44.928Z,-3.95
2017-01-06T01:40:44.860Z,-3.89
2017-01-06T01:41:45.001Z,-3.94
2017-01-06T01:42:44.960Z,-3.88
2017-01-06T01:43:44.933Z,-3.86
2017-01-06T01:44:44.860Z,-3.89
2017-01-06T01:45:44.971Z,-3.94
2017-01-06T01:46:44.888Z,-3.97
2017-01-06T01:47:44.888Z,-4.02
2017-01-06T01:48:44.921Z,-3.92
2017-01-06T01:49:45.165Z,-3.98
2017-01-06T01:50:44.856Z,-3.98
2017-01-06T01:51:44.949Z,-3.98
2017-01-06T01:52:44.859Z,-3.97
2017-01-06T01:53:45.002Z,-4.07
2017-01-06T01:54:44.933Z,-3.99
2017-01-06T01:55:44.912Z,-3.94
2017-01-06T01:56:44.911Z,-4.09
2017-01-06T01:57:44.870Z,-4.07
2017-01-06T01:58:44.882Z,-4.04
2017-01-06T01:59:44.913Z,-4.06
2017-01-06T02:00:44.908Z,-4.09
2017-01-06T02:01:44.959Z,-4.12
2017-01-06T02:02:45.898Z,-4.15
2017-01-06T02:03:44.958Z,-4.1
2017-01-06T02:04:44.851Z,-4.07
2017-01-06T02:05:45.668Z,-4.12
2017-01-06T02:06:44.977Z,-4.12
2017-01-06T02:07:45.029Z,-4.17
2017-01-06T02:08:44.878Z,-4.16
2017-01-06T02:09:44.908Z,-4.33
2017-01-06T02:10:44.897Z,-4.17
2017-01-06T02:11:45.148Z,-4.17
2017-01-06T02:12:44.928Z,-4.2
2017-01-06T02:13:44.986Z,-4.13
2017-01-06T02:14:44.888Z,-4.16
2017-01-06T02:15:44.999Z,-4.16
2017-01-06T02:16:44.999Z,-4.23
2017-01-06T02:17:44.893Z,-4.3
2017-01-06T02:18:44.963Z,-4.27
2017-01-06T02:19:45.184Z,-4.09
2017-01-06T02:20:44.927Z,-4.16
2017-01-06T02:21:44.992Z,-4.17
2017-01-06T02:22:44.904Z,-4.22
2017-01-06T02:23:44.947Z,-4.13
2017-01-06T02:24:44.937Z,-4.15
2017-01-06T02:25:45.096Z,-4.15
2017-01-06T02:26:44.957Z,-4.2
2017-01-06T02:27:44.881Z,-4.27
2017-01-06T02:28:44.898Z,-4.31
2017-01-06T02:29:44.927Z,-4.38
2017-01-06T02:30:44.937Z,-4.3
2017-01-06T02:31:44.955Z,-4.34
2017-01-06T02:32:45.598Z,-4.36
2017-01-06T02:33:44.917Z,-4.38
2017-01-06T02:34:44.928Z,-4.41
2017-01-06T02:35:45.075Z,-4.41
2017-01-06T02:36:45.047Z,-4.44
2017-01-06T02:37:45.114Z,-4.4
2017-01-06T02:38:44.892Z,-4.4
2017-01-06T02:39:45.169Z,-4.41
2017-01-06T02:40:45.038Z,-4.36
2017-01-06T02:41:45.071Z,-4.4
2017-01-06T02:42:45.010Z,-4.48
2017-01-06T02:43:45.060Z,-4.44
2017-01-06T02:44:44.984Z,-4.45
2017-01-06T02:45:44.903Z,-4.4
2017-01-06T02:46:44.979Z,-4.48
2017-01-06T02:47:45.083Z,-4.36
2017-01-06T02:48:44.956Z,-4.38
2017-01-06T02:49:44.998Z,-4.38
2017-01-06T02:50:44.965Z,-4.49
2017-01-06T02:51:44.961Z,-4.41
2017-01-06T02:52:44.940Z,-4.48
2017-01-06T02:53:44.987Z,-4.48
2017-01-06T02:54:44.950Z,-4.51
2017-01-06T02:55:44.972Z,-4.52
2017-01-06T02:56:44.969Z,-4.54
2017-01-06T02:57:45.018Z,-4.48
2017-01-06T02:58:44.964Z,-4.52
2017-01-06T02:59:44.961Z,-4.49
2017-01-06T03:00:44.961Z,-4.48
2017-01-06T03:01:44.963Z,-4.48
2017-01-06T03:02:44.993Z,-4.48
2017-01-06T03:03:44.952Z,-4.56
2017-01-06T03:04:44.940Z,-4.63
2017-01-06T03:05:45.113Z,-4.58
2017-01-06T03:06:44.955Z,-4.55
2017-01-06T03:07:45.028Z,-4.63
2017-01-06T03:08:44.979Z,-4.62
2017-01-06T03:09:44.962Z,-4.63
2017-01-06T03:10:44.944Z,-4.52
2017-01-06T03:11:45.659Z,-4.65
2017-01-06T03:12:44.908Z,-4.56
2017-01-06T03:13:44.963Z,-4.49
2017-01-06T03:14:45.044Z,-4.59
2017-01-06T03:15:44.989Z,-4.63
2017-01-06T03:16:44.997Z,-4.69
2017-01-06T03:17:44.992Z,-4.65
2017-01-06T03:18:45.496Z,-4.56
2017-01-06T03:19:45.029Z,-4.7
2017-01-06T03:20:45.045Z,-4.74
2017-01-06T03:21:44.993Z,-4.73
2017-01-06T03:22:45.013Z,-4.69
2017-01-06T03:23:45.116Z,-4.73
2017-01-06T03:24:44.989Z,-4.67
2017-01-06T03:25:44.974Z,-4.66
2017-01-06T03:26:44.987Z,-4.65
2017-01-06T03:27:45.000Z,-4.62
2017-01-06T03:28:44.998Z,-4.59
2017-01-06T03:29:45.022Z,-4.69
2017-01-06T03:30:44.984Z,-4.59
2017-01-06T03:31:45.003Z,-4.65
2017-01-06T03:32:46.640Z,-4.72
2017-01-06T03:33:45.004Z,-4.77
2017-01-06T03:34:45.033Z,-4.72
2017-01-06T03:35:44.977Z,-4.73
2017-01-06T03:36:44.987Z,-4.79
2017-01-06T03:37:45.103Z,-4.81
2017-01-06T03:38:44.952Z,-4.74
2017-01-06T03:39:46.989Z,-4.73
2017-01-06T03:40:45.026Z,-4.74
2017-01-06T03:41:44.969Z,-4.7
2017-01-06T03:42:45.097Z,-4.73
2017-01-06T03:43:45.130Z,-4.69
2017-01-06T03:44:44.979Z,-4.73
2017-01-06T03:45:45.002Z,-4.84
2017-01-06T03:46:45.003Z,-4.87
2017-01-06T03:47:45.157Z,-4.77
2017-01-06T03:48:44.998Z,-4.81
2017-01-06T03:49:45.127Z,-4.84
2017-01-06T03:50:45.120Z,-4.76
2017-01-06T03:51:44.978Z,-4.81
2017-01-06T03:52:45.067Z,-4.88
2017-01-06T03:53:45.142Z,-4.88
2017-01-06T03:54:45.009Z,-4.88
2017-01-06T03:55:45.109Z,-4.97
2017-01-06T03:56:45.084Z,-4.88
2017-01-06T03:57:45.074Z,-4.93
2017-01-06T03:58:45.074Z,-4.93
2017-01-06T03:59:45.109Z,-4.93
2017-01-06T04:00:45.000Z,-4.91
2017-01-06T04:01:45.141Z,-4.87
2017-01-06T04:02:45.005Z,-4.97
2017-01-06T04:03:45.052Z,-4.93
2017-01-06T04:04:44.979Z,-4.85
2017-01-06T04:05:45.160Z,-4.88
2017-01-06T04:06:45.068Z,-4.93
2017-01-06T04:07:45.120Z,-4.91
2017-01-06T04:08:44.958Z,-4.93
2017-01-06T04:09:45.007Z,-4.94
2017-01-06T04:10:45.028Z,-4.9
2017-01-06T04:11:45.015Z,-4.9
2017-01-06T04:12:44.998Z,-4.9
2017-01-06T04:13:45.165Z,-4.99
2017-01-06T04:14:45.078Z,-4.93
2017-01-06T04:15:45.057Z,-5.01
2017-01-06T04:16:45.083Z,-4.91
2017-01-06T04:17:45.066Z,-4.93
2017-01-06T04:18:45.025Z,-4.9
2017-01-06T04:19:44.985Z,-4.97
2017-01-06T04:20:46.789Z,-4.9
2017-01-06T04:25:15.668Z,-5.05
2017-01-06T04:26:15.441Z,-5.2
2017-01-06T04:27:15.408Z,-5.12
2017-01-06T04:28:15.500Z,-5.09
2017-01-06T04:29:15.417Z,-5.03
2017-01-06T04:30:15.540Z,-5.06
2017-01-06T04:31:15.630Z,-5.11
2017-01-06T04:32:15.498Z,-4.97
2017-01-06T04:33:15.452Z,-5.03
2017-01-06T04:34:15.537Z,-5.16
2017-01-06T04:35:15.487Z,-5.16
2017-01-06T04:36:15.527Z,-5.13
2017-01-06T04:37:16.104Z,-5.2
2017-01-06T04:38:15.599Z,-5.28
2017-01-06T04:39:15.447Z,-5.16
2017-01-06T04:40:16.268Z,-5.17
2017-01-06T04:41:15.520Z,-5.17
2017-01-06T04:42:15.570Z,-5.16
2017-01-06T04:43:15.430Z,-5.27
2017-01-06T04:44:15.527Z,-5.31
2017-01-06T04:45:15.488Z,-5.11
2017-01-06T04:46:15.549Z,-5.21
2017-01-06T04:47:15.477Z,-5.17
2017-01-06T04:48:15.554Z,-5.11
2017-01-06T04:49:15.549Z,-5.25
2017-01-06T04:50:15.514Z,-5.17
2017-01-06T04:51:15.444Z,-5.23
2017-01-06T04:52:16.219Z,-5.13
2017-01-06T04:53:15.526Z,-5.28
2017-01-06T04:54:15.444Z,-5.17
2017-01-06T04:55:15.505Z,-5.3
2017-01-06T04:56:15.456Z,-5.28
2017-01-06T04:57:15.599Z,-5.27
2017-01-06T04:58:15.491Z,-5.17
2017-01-06T04:59:15.406Z,-5.25
2017-01-06T05:00:15.522Z,-5.28
2017-01-06T05:01:15.566Z,-5.33
2017-01-06T05:02:15.492Z,-5.2
2017-01-06T05:03:15.565Z,-5.33
2017-01-06T05:04:15.570Z,-5.2
2017-01-06T05:05:15.459Z,-5.27
2017-01-06T05:06:15.497Z,-5.21
2017-01-06T05:07:15.490Z,-5.11
2017-01-06T05:08:15.481Z,-5.3
2017-01-06T05:09:15.681Z,-5.24
2017-01-06T05:10:15.483Z,-5.13
2017-01-06T05:11:16.127Z,-5.27
2017-01-06T05:12:15.578Z,-5.21
2017-01-06T05:13:15.482Z,-5.31
2017-01-06T05:14:15.739Z,-5.21
2017-01-06T05:15:15.503Z,-5.3
2017-01-06T05:16:15.633Z,-5.27
2017-01-06T05:17:15.623Z,-5.25
2017-01-06T05:18:15.526Z,-5.28
2017-01-06T05:19:16.685Z,-5.33
2017-01-06T05:20:15.584Z,-5.24
2017-01-06T05:21:15.473Z,-5.25
2017-01-06T05:22:15.527Z,-5.17
2017-01-06T05:23:15.488Z,-5.2
2017-01-06T05:24:15.513Z,-5.2
2017-01-06T05:25:15.524Z,-5.2
2017-01-06T05:26:15.555Z,-5.27
2017-01-06T05:27:15.539Z,-5.28
2017-01-06T05:28:15.496Z,-5.28
2017-01-06T05:29:15.551Z,-5.28
2017-01-06T05:30:15.552Z,-5.27
2017-01-06T05:31:15.523Z,-5.28
2017-01-06T05:32:15.501Z,-5.2
2017-01-06T05:33:15.482Z,-5.08
2017-01-06T05:34:15.442Z,-5.3
2017-01-06T05:35:15.506Z,-5.35
2017-01-06T05:36:15.556Z,-5.25
2017-01-06T05:37:15.523Z,-5.27
2017-01-06T05:38:15.542Z,-5.21
2017-01-06T05:39:15.517Z,-5.21
2017-01-06T05:40:15.567Z,-5.25
2017-01-06T05:41:15.612Z,-5.16
2017-01-06T05:42:15.570Z,-5.35
2017-01-06T05:43:15.572Z,-5.24
2017-01-06T05:44:15.633Z,-5.27
2017-01-06T05:45:15.694Z,-5.41
2017-01-06T05:46:15.611Z,-5.25
2017-01-06T05:47:15.751Z,-5.24
2017-01-06T05:48:15.547Z,-5.31
2017-01-06T05:49:15.551Z,-5.23
2017-01-06T05:50:15.587Z,-5.27
2017-01-06T05:51:15.550Z,-5.42
2017-01-06T05:52:15.603Z,-5.39
2017-01-06T05:53:18.080Z,-5.43
2017-01-06T05:54:15.537Z,-5.42
2017-01-06T05:55:15.521Z,-5.39
2017-01-06T05:56:15.540Z,-5.34
2017-01-06T05:57:15.561Z,-5.42
2017-01-06T05:58:15.568Z,-5.39
2017-01-06T05:59:15.531Z,-5.41
2017-01-06T06:00:15.612Z,-5.41
2017-01-06T06:01:15.552Z,-5.46
2017-01-06T06:02:15.541Z,-5.45
2017-01-06T06:03:15.514Z,-5.41
2017-01-06T06:04:15.563Z,-5.33
2017-01-06T06:05:15.590Z,-5.42
2017-01-06T06:06:15.602Z,-5.43
2017-01-06T06:07:15.491Z,-5.42
2017-01-06T06:08:15.567Z,-5.49
2017-01-06T06:09:15.511Z,-5.48
2017-01-06T06:10:15.571Z,-5.48
2017-01-06T06:11:15.562Z,-5.48
2017-01-06T06:12:15.581Z,-5.48
2017-01-06T06:13:15.598Z,-5.43
2017-01-06T06:14:15.624Z,-5.41
2017-01-06T06:15:15.711Z,-5.39
2017-01-06T06:16:15.597Z,-5.48
2017-01-06T06:17:15.562Z,-5.42
2017-01-06T06:18:15.601Z,-5.43
2017-01-06T06:19:15.745Z,-5.46
2017-01-06T06:20:15.712Z,-5.49
2017-01-06T06:21:15.813Z,-5.46
2017-01-06T06:22:15.683Z,-5.49
2017-01-06T06:23:15.612Z,-5.49
2017-01-06T06:24:15.621Z,-5.45
2017-01-06T06:25:15.602Z,-5.46
2017-01-06T06:26:15.638Z,-5.46
2017-01-06T06:27:15.600Z,-5.48
2017-01-06T06:28:15.566Z,-5.42
2017-01-06T06:29:15.534Z,-5.42
2017-01-06T06:30:15.587Z,-5.45
2017-01-06T06:31:15.534Z,-5.42
2017-01-06T06:32:15.587Z,-5.41
2017-01-06T06:33:15.577Z,-5.45
2017-01-06T06:34:15.681Z,-5.46
2017-01-06T06:35:15.606Z,-5.53
2017-01-06T06:36:15.649Z,-5.52
2017-01-06T06:37:15.848Z,-5.51
2017-01-06T06:38:15.662Z,-5.53
2017-01-06T06:39:15.754Z,-5.45
2017-01-06T06:40:15.687Z,-5.39
2017-01-06T06:41:16.407Z,-5.48
2017-01-06T06:42:15.613Z,-5.45
2017-01-06T06:43:15.677Z,-5.41
2017-01-06T06:44:15.588Z,-5.43
2017-01-06T06:45:15.779Z,-5.45
2017-01-06T06:46:15.590Z,-5.46
2017-01-06T06:47:15.582Z,-5.34
2017-01-06T06:48:15.763Z,-5.46
2017-01-06T06:49:15.724Z,-5.39
2017-01-06T06:50:15.653Z,-5.34
2017-01-06T06:51:15.679Z,-5.39
2017-01-06T06:52:15.638Z,-5.3
2017-01-06T06:53:15.608Z,-5.3
2017-01-06T06:54:15.635Z,-5.33
2017-01-06T06:55:16.296Z,-5.34
2017-01-06T06:56:15.674Z,-5.42
2017-01-06T06:57:15.604Z,-5.23
2017-01-06T06:58:15.597Z,-5.27
2017-01-06T06:59:15.889Z,-5.3
2017-01-06T07:00:15.664Z,-5.16
2017-01-06T07:01:15.647Z,-5.16
2017-01-06T07:02:15.678Z,-5.13
2017-01-06T07:03:15.772Z,-5.33
2017-01-06T07:04:15.711Z,-5.27
2017-01-06T07:05:15.649Z,-5.23
2017-01-06T07:06:15.700Z,-5.17
2017-01-06T07:07:15.818Z,-5.24
2017-01-06T07:08:15.655Z,-5.21
2017-01-06T07:09:15.692Z,-5.27
2017-01-06T07:10:15.670Z,-5.27
2017-01-06T07:11:15.634Z,-5.2
2017-01-06T07:12:15.723Z,-5.23
2017-01-06T07:13:15.745Z,-5.3
2017-01-06T07:14:15.663Z,-5.2
2017-01-06T07:15:15.606Z,-5.21
2017-01-06T07:16:15.635Z,-5.28
2017-01-06T07:17:15.764Z,-5.11
2017-01-06T07:18:15.697Z,-5.13
2017-01-06T07:19:15.606Z,-5.24
2017-01-06T07:20:15.722Z,-5.17
2017-01-06T07:21:15.825Z,-5.16
2017-01-06T07:22:15.593Z,-5.11
2017-01-06T07:23:15.673Z,-5.08
2017-01-06T07:24:15.662Z,-5.11
2017-01-06T07:25:15.603Z,-5.11
2017-01-06T07:26:15.661Z,-5.06
2017-01-06T07:27:15.629Z,-5.21
2017-01-06T07:28:15.631Z,-5.08
2017-01-06T07:29:15.576Z,-5.01
2017-01-06T07:30:15.642Z,-5.03
2017-01-06T07:31:15.705Z,-4.97
2017-01-06T07:32:15.652Z,-5.02
2017-01-06T07:33:15.661Z,-4.94
2017-01-06T07:34:15.822Z,-4.93
2017-01-06T07:35:15.752Z,-4.94
2017-01-06T07:36:15.682Z,-4.94
2017-01-06T07:37:15.721Z,-4.94
2017-01-06T07:38:15.730Z,-4.81
2017-01-06T07:39:16.251Z,-4.84
2017-01-06T07:40:15.869Z,-4.7
2017-01-06T07:41:15.750Z,-4.73
2017-01-06T07:42:15.691Z,-4.72
2017-01-06T07:43:15.642Z,-4.73
2017-01-06T07:44:16.333Z,-4.73
2017-01-06T07:45:15.694Z,-4.63
2017-01-06T07:46:15.651Z,-4.73
2017-01-06T07:47:15.672Z,-4.65
2017-01-06T07:48:15.688Z,-4.56
2017-01-06T07:49:15.778Z,-4.59
2017-01-06T07:50:15.710Z,-4.48
2017-01-06T07:51:15.788Z,-4.46
2017-01-06T07:52:15.705Z,-4.46
2017-01-06T07:53:15.737Z,-4.34
2017-01-06T07:54:15.680Z,-4.37
2017-01-06T07:55:15.707Z,-4.3
2017-01-06T07:56:15.690Z,-4.36
2017-01-06T07:57:15.611Z,-4.38
2017-01-06T07:58:15.747Z,-4.28
2017-01-06T07:59:15.789Z,-4.22
2017-01-06T08:00:15.701Z,-4.15
2017-01-06T08:01:15.810Z,-4.27
2017-01-06T08:02:15.640Z,-4.09
2017-01-06T08:03:15.699Z,-4.17
2017-01-06T08:04:15.735Z,-4.07
2017-01-06T08:05:15.781Z,-3.99
2017-01-06T08:06:15.628Z,-3.86
2017-01-06T08:07:15.646Z,-3.97
2017-01-06T08:08:15.702Z,-3.8
2017-01-06T08:09:15.962Z,-3.86
2017-01-06T08:10:15.701Z,-3.84
2017-01-06T08:11:15.736Z,-3.83
2017-01-06T08:12:15.668Z,-3.69
2017-01-06T08:13:16.352Z,-3.74
2017-01-06T08:14:15.697Z,-3.65
2017-01-06T08:15:15.657Z,-3.64
2017-01-06T08:16:16.231Z,-3.58
2017-01-06T08:17:15.668Z,-3.62
2017-01-06T08:18:15.769Z,-3.57
2017-01-06T08:19:15.683Z,-3.52
2017-01-06T08:20:15.839Z,-3.58
2017-01-06T08:21:15.759Z,-3.54
2017-01-06T08:22:15.749Z,-3.46
2017-01-06T08:23:15.853Z,-3.37
2017-01-06T08:24:15.796Z,-3.31
2017-01-06T08:25:16.701Z,-3.36
2017-01-06T08:26:15.844Z,-3.25
2017-01-06T08:27:15.737Z,-3.26
2017-01-06T08:28:15.707Z,-3.3
2017-01-06T08:29:15.855Z,-3.19
2017-01-06T08:30:15.806Z,-3.05
2017-01-06T08:31:15.728Z,-2.97
2017-01-06T08:32:15.699Z,-3.08
2017-01-06T08:33:15.682Z,-3.04
2017-01-06T08:34:15.789Z,-3.04
2017-01-06T08:35:15.887Z,-2.93
2017-01-06T08:36:15.740Z,-2.97
2017-01-06T08:37:25.714Z,-2.8
2017-01-06T08:38:15.893Z,-2.86
2017-01-06T08:39:15.726Z,-2.74
2017-01-06T08:40:15.879Z,-2.76
2017-01-06T08:41:15.897Z,-2.74
2017-01-06T08:42:15.859Z,-2.68
2017-01-06T08:43:15.681Z,-2.66
2017-01-06T08:44:15.801Z,-2.5
2017-01-06T08:45:16.073Z,-2.37
2017-01-06T08:46:15.834Z,-2.37
2017-01-06T08:47:15.719Z,-2.37
2017-01-06T08:48:15.764Z,-2.38
2017-01-06T08:49:15.810Z,-2.21
2017-01-06T08:50:15.768Z,-2.29
2017-01-06T08:51:15.885Z,-2.19
2017-01-06T08:52:15.716Z,-2.21
2017-01-06T08:53:15.787Z,-2.14
2017-01-06T08:54:15.838Z,-2.26
2017-01-06T08:55:15.886Z,-2.13
2017-01-06T08:56:15.926Z,-2.07
2017-01-06T08:57:16.043Z,-2.04
2017-01-06T08:58:15.828Z,-1.86
2017-01-06T08:59:15.933Z,-1.92
2017-01-06T09:00:15.839Z,-1.85
2017-01-06T09:01:15.842Z,-1.92
2017-01-06T09:02:15.853Z,-1.89
2017-01-06T09:03:15.888Z,-1.77
2017-01-06T09:04:15.783Z,-1.7
2017-01-06T09:05:15.859Z,-1.65
2017-01-06T09:06:15.842Z,-1.62
2017-01-06T09:07:15.729Z,-1.57
2017-01-06T09:08:15.758Z,-1.57
2017-01-06T09:09:15.775Z,-1.68
2017-01-06T09:10:15.810Z,-1.61
2017-01-06T09:11:15.945Z,-1.59
2017-01-06T09:12:15.861Z,-1.62
2017-01-06T09:13:15.772Z,-1.7
2017-01-06T09:14:16.857Z,-1.75
2017-01-06T09:15:15.997Z,-1.7
2017-01-06T09:16:15.837Z,-1.64
2017-01-06T09:17:15.800Z,-1.56
2017-01-06T09:18:15.873Z,-1.46
2017-01-06T09:19:15.769Z,-1.44
2017-01-06T09:20:15.816Z,-1.44
2017-01-06T09:21:16.001Z,-1.33
2017-01-06T09:22:15.879Z,-1.2
2017-01-06T09:23:15.726Z,-1.03
2017-01-06T09:24:15.819Z,-1.05
2017-01-06T09:25:15.837Z,-1.02
2017-01-06T09:26:15.899Z,-0.93
2017-01-06T09:27:16.548Z,-0.83
2017-01-06T09:28:15.747Z,-0.8
2017-01-06T09:29:15.931Z,-0.73
2017-01-06T09:30:15.856Z,-0.65
2017-01-06T09:31:15.830Z,-0.56
2017-01-06T09:32:15.770Z,-0.55
2017-01-06T09:33:15.914Z,-0.45
2017-01-06T09:34:15.906Z,-0.49
2017-01-06T09:35:15.804Z,-0.53
2017-01-06T09:36:15.755Z,-0.52
2017-01-06T09:37:16.867Z,-0.6
2017-01-06T09:38:15.786Z,-0.53
2017-01-06T09:39:15.810Z,-0.44
2017-01-06T09:40:15.956Z,-0.44
2017-01-06T09:41:15.854Z,-0.44
2017-01-06T09:42:15.851Z,-0.44
2017-01-06T09:43:15.863Z,-0.47
2017-01-06T09:44:15.826Z,-0.5
2017-01-06T09:45:15.835Z,-0.44
2017-01-06T09:46:15.923Z,-0.21
2017-01-06T09:47:15.946Z,-0.13
2017-01-06T09:48:15.838Z,-0.05
2017-01-06T09:49:15.892Z,0.04
2017-01-06T09:50:16.418Z,0.04
2017-01-06T09:51:15.867Z,0.08
2017-01-06T09:52:15.766Z,0.44
2017-01-06T09:53:16.702Z,0.6
2017-01-06T09:54:15.826Z,0.89
2017-01-06T09:55:16.536Z,0.96
2017-01-06T09:56:17.054Z,1.28
2017-01-06T09:57:16.583Z,1.5
2017-01-06T09:58:15.889Z,1.35
2017-01-06T09:59:15.974Z,1.53
2017-01-06T10:00:15.980Z,1.54
2017-01-06T10:01:15.876Z,1.39
2017-01-06T10:02:15.860Z,1.35
2017-01-06T10:03:15.875Z,1.77
2017-01-06T10:04:15.877Z,1.54
2017-01-06T10:05:16.014Z,1.71
2017-01-06T10:06:15.834Z,1.93
2017-01-06T10:07:15.995Z,2.26
2017-01-06T10:08:15.870Z,2.44
2017-01-06T10:09:17.301Z,2.63
2017-01-06T10:10:15.893Z,2.58
2017-01-06T10:11:17.801Z,2.56
2017-01-06T10:12:15.866Z,2.8
2017-01-06T10:13:16.107Z,2.97
2017-01-06T10:14:15.946Z,2.99
2017-01-06T10:15:16.043Z,2.97
2017-01-06T10:16:15.939Z,3.22
2017-01-06T10:17:15.985Z,3.2
2017-01-06T10:18:15.915Z,3.02
2017-01-06T10:19:15.864Z,2.66
2017-01-06T10:20:16.023Z,2
2017-01-06T10:21:15.848Z,1.54
2017-01-06T10:22:15.863Z,1.43
2017-01-06T10:23:15.964Z,1.21
2017-01-06T10:24:15.854Z,1.25
2017-01-06T10:25:16.004Z,1.2
2017-01-06T10:26:15.792Z,1.04
2017-01-06T10:27:25.833Z,0.96
2017-01-06T10:28:15.873Z,0.78
2017-01-06T10:29:15.948Z,0.77
2017-01-06T10:30:15.945Z,0.78
2017-01-06T10:31:16.020Z,0.88
2017-01-06T10:32:15.862Z,0.81
2017-01-06T10:33:15.944Z,0.8
2017-01-06T10:34:16.666Z,0.6
2017-01-06T10:35:17.015Z,0.51
2017-01-06T10:36:16.394Z,0.4
2017-01-06T10:37:16.113Z,0.31
2017-01-06T10:38:15.959Z,0.25
2017-01-06T10:39:15.898Z,0.19
2017-01-06T10:40:15.942Z,0.26
2017-01-06T10:41:16.139Z,0.16
2017-01-06T10:42:15.946Z,0.2
2017-01-06T10:43:16.154Z,0.17
2017-01-06T10:44:15.871Z,0.05
2017-01-06T10:45:16.059Z,0.01
2017-01-06T10:46:16.006Z,-0.06
2017-01-06T10:47:16.024Z,0.07
2017-01-06T10:48:15.928Z,-0.05
2017-01-06T10:49:16.535Z,-0.05
2017-01-06T10:50:15.944Z,-0.13
2017-01-06T10:51:15.884Z,-0.05
2017-01-06T10:52:15.852Z,-0.16
2017-01-06T10:53:16.024Z,-0.17
2017-01-06T10:54:15.914Z,-0.13
2017-01-06T10:55:15.923Z,-0.08
2017-01-06T10:56:15.923Z,-0.17
2017-01-06T10:57:16.002Z,-0.24
2017-01-06T10:58:16.030Z,-0.17
2017-01-06T10:59:15.974Z,-0.17
2017-01-06T11:00:16.007Z,-0.23
2017-01-06T11:01:15.920Z,-0.31
2017-01-06T11:02:15.943Z,-0.21
2017-01-06T11:03:15.961Z,-0.2
2017-01-06T11:04:15.853Z,-0.32
2017-01-06T11:05:15.965Z,-0.31
2017-01-06T11:06:15.892Z,-0.16
2017-01-06T11:07:16.031Z,-0.17
2017-01-06T11:08:15.948Z,-0.13
2017-01-06T11:09:16.001Z,-0.16
2017-01-06T11:10:16.011Z,-0.16
2017-01-06T11:11:16.052Z,-0.12
2017-01-06T11:12:15.934Z,-0.13
2017-01-06T11:13:15.991Z,-0.09
2017-01-06T11:14:15.921Z,0.02
2017-01-06T11:15:15.943Z,0.07
2017-01-06T11:16:15.999Z,0.13
2017-01-06T11:17:16.091Z,0.3
2017-01-06T11:18:15.996Z,0.34
2017-01-06T11:19:15.944Z,0.57
2017-01-06T11:20:16.024Z,0.82
2017-01-06T11:21:16.040Z,1
2017-01-06T11:22:18.661Z,1.18
2017-01-06T11:23:16.075Z,1.54
2017-01-06T11:24:16.072Z,1.9
2017-01-06T11:25:16.023Z,2.07
2017-01-06T11:26:15.946Z,2.04
2017-01-06T11:27:16.020Z,2.37
2017-01-06T11:28:15.993Z,2.5
2017-01-06T11:29:15.901Z,2.58
2017-01-06T11:30:16.002Z,2.44
2017-01-06T11:31:16.072Z,2.2
2017-01-06T11:32:17.591Z,2.08
2017-01-06T11:33:16.121Z,2
2017-01-06T11:34:15.986Z,1.83
2017-01-06T11:35:16.083Z,1.64
2017-01-06T11:36:16.025Z,1.49
2017-01-06T11:37:15.973Z,1.57
2017-01-06T11:38:16.031Z,1.6
2017-01-06T11:39:16.162Z,1.86
2017-01-06T11:40:16.017Z,1.98
2017-01-06T11:41:17.272Z,1.9
2017-01-06T11:42:15.959Z,2.09
2017-01-06T11:43:16.137Z,2.04
2017-01-06T11:44:15.993Z,2.07
2017-01-06T11:45:16.882Z,2.01
2017-01-06T11:46:15.960Z,1.93
2017-01-06T11:47:16.173Z,1.95
2017-01-06T11:48:16.125Z,1.93
2017-01-06T11:49:16.131Z,2.05
2017-01-06T11:50:15.944Z,1.79
2017-01-06T11:51:15.973Z,2.01
2017-01-06T11:52:16.020Z,1.95
2017-01-06T11:53:15.998Z,1.9
2017-01-06T11:54:16.101Z,1.9
2017-01-06T11:55:16.069Z,1.88
2017-01-06T11:56:15.969Z,1.89
2017-01-06T11:57:17.123Z,2.01
2017-01-06T11:58:15.992Z,2
2017-01-06T11:59:16.689Z,2.01
2017-01-06T12:00:16.068Z,1.93
2017-01-06T12:01:16.176Z,1.89
2017-01-06T12:02:16.050Z,1.98
2017-01-06T12:03:16.681Z,1.95
2017-01-06T12:04:16.082Z,2.08
2017-01-06T12:05:16.107Z,2.02
2017-01-06T12:06:15.987Z,2.22
2017-01-06T12:07:16.089Z,2.2
2017-01-06T12:08:15.967Z,2.44
2017-01-06T12:09:16.137Z,2.58
2017-01-06T12:10:16.052Z,2.69
2017-01-06T12:11:16.058Z,2.87
2017-01-06T12:12:16.145Z,2.97
2017-01-06T12:13:16.107Z,3.04
2017-01-06T12:14:16.056Z,3.26
2017-01-06T12:15:16.127Z,3.46
2017-01-06T12:16:16.053Z,3.63
2017-01-06T12:17:16.214Z,3.6
2017-01-06T12:18:15.927Z,3.67
2017-01-06T12:19:16.127Z,3.72
2017-01-06T12:20:15.961Z,3.92
2017-01-06T12:21:16.000Z,4.07
2017-01-06T12:22:15.975Z,4.2
2017-01-06T12:23:16.147Z,4.2
2017-01-06T12:24:16.043Z,4.28
2017-01-06T12:25:16.046Z,4.32
2017-01-06T12:26:16.087Z,4.13
2017-01-06T12:27:16.715Z,4.07
2017-01-06T12:28:16.029Z,3.89
2017-01-06T12:29:16.080Z,3.78
2017-01-06T12:30:16.006Z,3.62
2017-01-06T12:31:16.770Z,3.63
2017-01-06T12:32:16.075Z,3.49
2017-01-06T12:33:15.997Z,3.42
2017-01-06T12:34:15.984Z,3.34
2017-01-06T12:35:15.992Z,3.3
2017-01-06T12:36:16.155Z,3.08
2017-01-06T12:37:16.625Z,3.02
2017-01-06T12:38:15.942Z,2.86
2017-01-06T12:39:16.054Z,2.83
2017-01-06T12:40:16.103Z,2.69
2017-01-06T12:41:16.133Z,2.66
2017-01-06T12:42:16.235Z,2.73
2017-01-06T12:43:16.082Z,2.81
2017-01-06T12:44:16.061Z,2.84
2017-01-06T12:45:16.216Z,2.79
2017-01-06T12:46:16.063Z,2.8
2017-01-06T12:47:16.085Z,2.66
2017-01-06T12:48:16.100Z,2.81
2017-01-06T12:49:16.207Z,2.69
2017-01-06T12:50:16.062Z,2.77
2017-01-06T12:51:16.674Z,2.74
2017-01-06T12:52:16.109Z,2.77
2017-01-06T12:53:16.184Z,2.65
2017-01-06T12:54:16.006Z,2.73
2017-01-06T12:55:16.061Z,2.73
2017-01-06T12:56:16.050Z,2.89
2017-01-06T12:57:16.219Z,2.98
2017-01-06T12:58:16.048Z,2.89
2017-01-06T12:59:16.151Z,2.95
2017-01-06T13:00:16.240Z,2.9
2017-01-06T13:01:16.068Z,2.89
2017-01-06T13:02:16.113Z,2.8
2017-01-06T13:03:16.102Z,2.89
2017-01-06T13:04:16.186Z,2.92
2017-01-06T13:05:16.247Z,2.89